Willow View Heights, Pennsylvania
Current Conditions -  °F | °C
As of 3:53 AM on Wednesday 28 Jan 2015 (Local Time) from KLNS Reporting Station
Clear Clear  
Wind Chill:   Ceiling: Unl
Heat Index: 16°   Visibility: 10mi
Dew Point:   Wind: 17mph
Humidity: 52%   Direction: 310°NW
Pressure: 30.02"   Gusts: NA
Location:  40.0158°N, 76.2452°W
Report Text: KLNS 280853Z AUTO 31015KT 10SM CLR M09/M17 A3002 RMK AO2 PK WND 32026/0806 SLP171 T10891172 51015
Loading
Personal Weather Stations






























Interactive Weather Map New forecast layout! Learn more

10-Day Weather Forecast

Advertisements
Track Severe Weather on mobile